sensor_id;sensor_type;location;lat;lon;timestamp;P1;durP1;ratioP1;P2;durP2;ratioP2
11171;SDS011;5642;50.830;12.082;2022-08-19T02:10:42;4.50;;;4.20;;
11171;SDS011;5642;50.830;12.082;2022-08-19T02:13:10;4.68;;;4.32;;
11171;SDS011;5642;50.830;12.082;2022-08-19T02:15:39;4.95;;;4.55;;
11171;SDS011;5642;50.830;12.082;2022-08-19T02:18:05;4.65;;;4.25;;
11171;SDS011;5642;50.830;12.082;2022-08-19T02:20:32;4.95;;;4.55;;
11171;SDS011;5642;50.830;12.082;2022-08-19T02:22:58;5.03;;;4.53;;
11171;SDS011;5642;50.830;12.082;2022-08-19T02:25:24;5.10;;;4.70;;
11171;SDS011;5642;50.830;12.082;2022-08-19T02:27:50;5.25;;;4.85;;
11171;SDS011;5642;50.830;12.082;2022-08-19T02:30:17;5.50;;;5.00;;
11171;SDS011;5642;50.830;12.082;2022-08-19T02:32:44;5.18;;;4.68;;
11171;SDS011;5642;50.830;12.082;2022-08-19T02:35:11;5.10;;;4.70;;
11171;SDS011;5642;50.830;12.082;2022-08-19T02:37:39;5.47;;;5.07;;
11171;SDS011;5642;50.830;12.082;2022-08-19T02:40:25;5.38;;;4.97;;
11171;SDS011;5642;50.830;12.082;2022-08-19T02:42:53;5.90;;;5.38;;
11171;SDS011;5642;50.830;12.082;2022-08-19T02:45:19;5.65;;;5.15;;
11171;SDS011;5642;50.830;12.082;2022-08-19T02:47:45;5.45;;;5.00;;
11171;SDS011;5642;50.830;12.082;2022-08-19T02:50:12;5.28;;;4.88;;
11171;SDS011;5642;50.830;12.082;2022-08-19T02:52:39;4.82;;;4.43;;
11171;SDS011;5642;50.830;12.082;2022-08-19T02:55:05;4.95;;;4.55;;
11171;SDS011;5642;50.830;12.082;2022-08-19T02:57:32;5.38;;;4.93;;
11171;SDS011;5642;50.830;12.082;2022-08-19T02:59:58;5.05;;;4.63;;
11171;SDS011;5642;50.830;12.082;2022-08-19T03:02:24;5.10;;;4.70;;
11171;SDS011;5642;50.830;12.082;2022-08-19T03:04:50;5.60;;;4.90;;
11171;SDS011;5642;50.830;12.082;2022-08-19T03:07:19;5.30;;;4.90;;
11171;SDS011;5642;50.830;12.082;2022-08-19T03:09:45;5.57;;;5.07;;
11171;SDS011;5642;50.830;12.082;2022-08-19T04:13:33;5.25;;;4.85;;
11171;SDS011;5642;50.830;12.082;2022-08-19T04:16:04;5.15;;;4.75;;
11171;SDS011;5642;50.830;12.082;2022-08-19T04:18:32;5.88;;;5.43;;
11171;SDS011;5642;50.830;12.082;2022-08-19T04:20:59;5.43;;;5.03;;
11171;SDS011;5642;50.830;12.082;2022-08-19T04:23:27;5.80;;;5.18;;
11171;SDS011;5642;50.830;12.082;2022-08-19T04:25:56;6.10;;;5.60;;
11171;SDS011;5642;50.830;12.082;2022-08-19T04:28:23;5.70;;;5.30;;
11171;SDS011;5642;50.830;12.082;2022-08-19T04:30:50;5.80;;;5.30;;
11171;SDS011;5642;50.830;12.082;2022-08-19T04:33:23;5.90;;;5.40;;
11171;SDS011;5642;50.830;12.082;2022-08-19T04:35:52;6.20;;;5.60;;
11171;SDS011;5642;50.830;12.082;2022-08-19T04:38:19;6.15;;;5.65;;
11171;SDS011;5642;50.830;12.082;2022-08-19T04:40:48;5.90;;;5.40;;
11171;SDS011;5642;50.830;12.082;2022-08-19T04:43:37;5.68;;;5.18;;
11171;SDS011;5642;50.830;12.082;2022-08-19T04:46:05;5.90;;;5.40;;
11171;SDS011;5642;50.830;12.082;2022-08-19T06:49:05;7.07;;;6.47;;
11171;SDS011;5642;50.830;12.082;2022-08-19T06:51:42;7.80;;;7.00;;
11171;SDS011;5642;50.830;12.082;2022-08-19T06:54:14;6.90;;;6.20;;
11171;SDS011;5642;50.830;12.082;2022-08-19T06:56:42;6.97;;;6.25;;
11171;SDS011;5642;50.830;12.082;2022-08-19T06:59:10;7.72;;;7.03;;
11171;SDS011;5642;50.830;12.082;2022-08-19T07:01:49;7.28;;;6.57;;
11171;SDS011;5642;50.830;12.082;2022-08-19T07:04:19;7.35;;;6.65;;
11171;SDS011;5642;50.830;12.082;2022-08-19T07:06:46;7.50;;;6.80;;
11171;SDS011;5642;50.830;12.082;2022-08-19T07:09:15;7.57;;;6.88;;
11171;SDS011;5642;50.830;12.082;2022-08-19T07:11:44;7.95;;;7.25;;
11171;SDS011;5642;50.830;12.082;2022-08-19T07:14:11;7.00;;;6.40;;
11171;SDS011;5642;50.830;12.082;2022-08-19T07:16:44;8.10;;;7.30;;
11171;SDS011;5642;50.830;12.082;2022-08-19T07:19:11;7.90;;;7.20;;
11171;SDS011;5642;50.830;12.082;2022-08-19T07:21:38;7.78;;;7.10;;
11171;SDS011;5642;50.830;12.082;2022-08-19T07:24:05;7.35;;;6.65;;
11171;SDS011;5642;50.830;12.082;2022-08-19T07:26:40;7.80;;;7.00;;
11171;SDS011;5642;50.830;12.082;2022-08-19T07:29:20;7.50;;;6.78;;
11171;SDS011;5642;50.830;12.082;2022-08-19T07:31:57;7.97;;;7.18;;
11171;SDS011;5642;50.830;12.082;2022-08-19T07:34:24;7.68;;;6.97;;
11171;SDS011;5642;50.830;12.082;2022-08-19T07:36:53;7.82;;;7.13;;
11171;SDS011;5642;50.830;12.082;2022-08-19T07:39:23;7.93;;;7.18;;
11171;SDS011;5642;50.830;12.082;2022-08-19T07:41:53;7.85;;;7.15;;
11171;SDS011;5642;50.830;12.082;2022-08-19T07:44:20;7.20;;;6.50;;
11171;SDS011;5642;50.830;12.082;2022-08-19T07:46:52;7.97;;;7.20;;
11171;SDS011;5642;50.830;12.082;2022-08-19T08:51:46;5.68;;;5.07;;
11171;SDS011;5642;50.830;12.082;2022-08-19T08:54:18;6.00;;;5.40;;
11171;SDS011;5642;50.830;12.082;2022-08-19T08:56:49;5.88;;;5.40;;
11171;SDS011;5642;50.830;12.082;2022-08-19T08:59:21;5.60;;;5.15;;
11171;SDS011;5642;50.830;12.082;2022-08-19T09:01:55;5.63;;;5.05;;
11171;SDS011;5642;50.830;12.082;2022-08-19T09:04:21;6.20;;;5.70;;
11171;SDS011;5642;50.830;12.082;2022-08-19T09:09:43;6.05;;;5.60;;
11171;SDS011;5642;50.830;12.082;2022-08-19T09:14:59;6.15;;;5.57;;
11171;SDS011;5642;50.830;12.082;2022-08-19T09:17:30;5.82;;;5.32;;
11171;SDS011;5642;50.830;12.082;2022-08-19T09:20:00;6.80;;;6.20;;
11171;SDS011;5642;50.830;12.082;2022-08-19T09:22:34;6.45;;;5.75;;
11171;SDS011;5642;50.830;12.082;2022-08-19T09:25:02;6.60;;;5.90;;
11171;SDS011;5642;50.830;12.082;2022-08-19T09:27:30;6.28;;;5.78;;
11171;SDS011;5642;50.830;12.082;2022-08-19T09:29:57;6.40;;;5.90;;
11171;SDS011;5642;50.830;12.082;2022-08-19T09:32:24;7.10;;;6.50;;
11171;SDS011;5642;50.830;12.082;2022-08-19T09:34:51;6.40;;;5.50;;
11171;SDS011;5642;50.830;12.082;2022-08-19T09:37:22;6.65;;;6.05;;
11171;SDS011;5642;50.830;12.082;2022-08-19T09:39:49;6.78;;;6.18;;
11171;SDS011;5642;50.830;12.082;2022-08-19T09:42:21;6.45;;;5.93;;
11171;SDS011;5642;50.830;12.082;2022-08-19T09:44:51;6.03;;;5.43;;
11171;SDS011;5642;50.830;12.082;2022-08-19T09:47:18;6.18;;;5.68;;
11171;SDS011;5642;50.830;12.082;2022-08-19T09:49:45;6.35;;;5.75;;
11171;SDS011;5642;50.830;12.082;2022-08-19T09:52:15;5.97;;;5.40;;
11171;SDS011;5642;50.830;12.082;2022-08-19T09:54:41;5.93;;;5.43;;
11171;SDS011;5642;50.830;12.082;2022-08-19T09:57:08;5.78;;;5.10;;
11171;SDS011;5642;50.830;12.082;2022-08-19T09:59:36;5.22;;;4.82;;
11171;SDS011;5642;50.830;12.082;2022-08-19T10:02:04;5.13;;;4.72;;
11171;SDS011;5642;50.830;12.082;2022-08-19T10:04:30;5.95;;;5.45;;
11171;SDS011;5642;50.830;12.082;2022-08-19T10:07:15;5.63;;;5.20;;
11171;SDS011;5642;50.830;12.082;2022-08-19T10:09:41;5.15;;;4.75;;
11171;SDS011;5642;50.830;12.082;2022-08-19T10:12:08;6.95;;;4.80;;
11171;SDS011;5642;50.830;12.082;2022-08-19T10:14:34;5.90;;;5.40;;
11171;SDS011;5642;50.830;12.082;2022-08-19T10:17:02;5.30;;;4.82;;
11171;SDS011;5642;50.830;12.082;2022-08-19T10:19:28;4.80;;;4.30;;
11171;SDS011;5642;50.830;12.082;2022-08-19T10:22:05;4.32;;;4.03;;
11171;SDS011;5642;50.830;12.082;2022-08-19T10:24:33;4.40;;;4.07;;
11171;SDS011;5642;50.830;12.082;2022-08-19T10:27:00;4.40;;;3.83;;
11171;SDS011;5642;50.830;12.082;2022-08-19T10:29:29;3.90;;;3.60;;
11171;SDS011;5642;50.830;12.082;2022-08-19T10:31:59;3.42;;;3.22;;
11171;SDS011;5642;50.830;12.082;2022-08-19T10:34:35;3.60;;;3.30;;
11171;SDS011;5642;50.830;12.082;2022-08-19T10:37:04;3.35;;;3.10;;
11171;SDS011;5642;50.830;12.082;2022-08-19T10:39:32;3.17;;;2.97;;
11171;SDS011;5642;50.830;12.082;2022-08-19T10:41:59;5.03;;;3.30;;
11171;SDS011;5642;50.830;12.082;2022-08-19T10:44:31;3.40;;;3.13;;
11171;SDS011;5642;50.830;12.082;2022-08-19T10:47:00;3.30;;;3.00;;
11171;SDS011;5642;50.830;12.082;2022-08-19T10:49:27;2.67;;;2.47;;
11171;SDS011;5642;50.830;12.082;2022-08-19T10:51:54;2.72;;;2.53;;
11171;SDS011;5642;50.830;12.082;2022-08-19T10:54:39;3.28;;;2.92;;
11171;SDS011;5642;50.830;12.082;2022-08-19T10:57:25;2.80;;;2.60;;
11171;SDS011;5642;50.830;12.082;2022-08-19T10:59:57;3.13;;;2.92;;
11171;SDS011;5642;50.830;12.082;2022-08-19T11:02:23;2.95;;;2.60;;
11171;SDS011;5642;50.830;12.082;2022-08-19T11:04:49;2.70;;;2.47;;
11171;SDS011;5642;50.830;12.082;2022-08-19T11:07:17;2.75;;;2.55;;
11171;SDS011;5642;50.830;12.082;2022-08-19T11:09:43;2.67;;;2.25;;
11171;SDS011;5642;50.830;12.082;2022-08-19T11:12:11;2.50;;;2.30;;
11171;SDS011;5642;50.830;12.082;2022-08-19T11:14:38;2.80;;;2.60;;
11171;SDS011;5642;50.830;12.082;2022-08-19T11:17:05;2.60;;;2.40;;
11171;SDS011;5642;50.830;12.082;2022-08-19T11:19:32;2.25;;;2.08;;
11171;SDS011;5642;50.830;12.082;2022-08-19T11:21:59;2.35;;;2.15;;
11171;SDS011;5642;50.830;12.082;2022-08-19T11:24:28;2.33;;;2.17;;
11171;SDS011;5642;50.830;12.082;2022-08-19T11:27:00;2.50;;;2.30;;
11171;SDS011;5642;50.830;12.082;2022-08-19T11:29:32;2.10;;;2.00;;
11171;SDS011;5642;50.830;12.082;2022-08-19T11:32:03;1.98;;;1.88;;
11171;SDS011;5642;50.830;12.082;2022-08-19T11:34:34;2.03;;;1.90;;
11171;SDS011;5642;50.830;12.082;2022-08-19T11:37:01;2.35;;;2.15;;
11171;SDS011;5642;50.830;12.082;2022-08-19T11:39:30;1.90;;;1.70;;
11171;SDS011;5642;50.830;12.082;2022-08-19T11:42:03;1.80;;;1.70;;
11171;SDS011;5642;50.830;12.082;2022-08-19T11:44:53;2.47;;;1.92;;
11171;SDS011;5642;50.830;12.082;2022-08-19T11:47:28;2.95;;;1.70;;
11171;SDS011;5642;50.830;12.082;2022-08-19T11:49:59;1.67;;;1.58;;
11171;SDS011;5642;50.830;12.082;2022-08-19T11:52:25;1.70;;;1.60;;
11171;SDS011;5642;50.830;12.082;2022-08-19T11:54:52;1.75;;;1.65;;
11171;SDS011;5642;50.830;12.082;2022-08-19T11:57:18;1.75;;;1.65;;
11171;SDS011;5642;50.830;12.082;2022-08-19T11:59:49;1.60;;;1.50;;
11171;SDS011;5642;50.830;12.082;2022-08-19T12:02:19;1.65;;;1.38;;
11171;SDS011;5642;50.830;12.082;2022-08-19T12:04:45;1.60;;;1.50;;
11171;SDS011;5642;50.830;12.082;2022-08-19T12:07:11;1.45;;;1.42;;
11171;SDS011;5642;50.830;12.082;2022-08-19T12:09:39;1.80;;;1.70;;
11171;SDS011;5642;50.830;12.082;2022-08-19T12:12:05;1.60;;;1.50;;
11171;SDS011;5642;50.830;12.082;2022-08-19T12:14:31;1.70;;;1.60;;
11171;SDS011;5642;50.830;12.082;2022-08-19T12:16:58;1.73;;;1.63;;
11171;SDS011;5642;50.830;12.082;2022-08-19T12:19:24;1.63;;;1.52;;
11171;SDS011;5642;50.830;12.082;2022-08-19T12:21:50;1.75;;;1.65;;
11171;SDS011;5642;50.830;12.082;2022-08-19T12:24:23;1.60;;;1.50;;
11171;SDS011;5642;50.830;12.082;2022-08-19T12:26:50;1.50;;;1.40;;
11171;SDS011;5642;50.830;12.082;2022-08-19T12:29:16;1.65;;;1.55;;
11171;SDS011;5642;50.830;12.082;2022-08-19T12:31:43;1.55;;;1.45;;
11171;SDS011;5642;50.830;12.082;2022-08-19T12:34:09;1.42;;;1.33;;
11171;SDS011;5642;50.830;12.082;2022-08-19T12:36:35;1.60;;;1.50;;
11171;SDS011;5642;50.830;12.082;2022-08-19T12:39:02;1.77;;;1.67;;
11171;SDS011;5642;50.830;12.082;2022-08-19T12:41:28;1.80;;;1.67;;
11171;SDS011;5642;50.830;12.082;2022-08-19T12:43:54;1.70;;;1.60;;
11171;SDS011;5642;50.830;12.082;2022-08-19T12:46:21;2.15;;;1.73;;
11171;SDS011;5642;50.830;12.082;2022-08-19T12:48:47;1.50;;;1.40;;
11171;SDS011;5642;50.830;12.082;2022-08-19T12:51:14;1.38;;;1.35;;
11171;SDS011;5642;50.830;12.082;2022-08-19T13:52:23;1.30;;;1.20;;
11171;SDS011;5642;50.830;12.082;2022-08-19T13:54:50;1.58;;;1.48;;
11171;SDS011;5642;50.830;12.082;2022-08-19T13:57:16;1.60;;;1.50;;
11171;SDS011;5642;50.830;12.082;2022-08-19T13:59:42;1.67;;;1.58;;
11171;SDS011;5642;50.830;12.082;2022-08-19T14:02:09;1.70;;;1.60;;
11171;SDS011;5642;50.830;12.082;2022-08-19T14:04:36;1.80;;;1.70;;
11171;SDS011;5642;50.830;12.082;2022-08-19T14:07:03;1.80;;;1.70;;
11171;SDS011;5642;50.830;12.082;2022-08-19T14:09:30;1.90;;;1.70;;
11171;SDS011;5642;50.830;12.082;2022-08-19T14:11:57;1.42;;;1.33;;
11171;SDS011;5642;50.830;12.082;2022-08-19T14:14:23;1.48;;;1.38;;
11171;SDS011;5642;50.830;12.082;2022-08-19T14:16:49;1.77;;;1.67;;
11171;SDS011;5642;50.830;12.082;2022-08-19T14:19:15;1.67;;;1.58;;
11171;SDS011;5642;50.830;12.082;2022-08-19T14:21:42;1.83;;;1.73;;
11171;SDS011;5642;50.830;12.082;2022-08-19T14:24:08;1.65;;;1.55;;
11171;SDS011;5642;50.830;12.082;2022-08-19T14:26:34;1.88;;;1.77;;
11171;SDS011;5642;50.830;12.082;2022-08-19T14:29:00;1.70;;;1.60;;
11171;SDS011;5642;50.830;12.082;2022-08-19T14:31:26;1.50;;;1.40;;
11171;SDS011;5642;50.830;12.082;2022-08-19T14:33:53;1.63;;;1.52;;
11171;SDS011;5642;50.830;12.082;2022-08-19T14:36:19;1.63;;;1.52;;
11171;SDS011;5642;50.830;12.082;2022-08-19T14:38:46;1.60;;;1.50;;
11171;SDS011;5642;50.830;12.082;2022-08-19T14:41:19;1.75;;;1.65;;
11171;SDS011;5642;50.830;12.082;2022-08-19T14:43:47;1.63;;;1.52;;
11171;SDS011;5642;50.830;12.082;2022-08-19T14:46:16;1.67;;;1.58;;
11171;SDS011;5642;50.830;12.082;2022-08-19T14:48:48;1.65;;;1.55;;
11171;SDS011;5642;50.830;12.082;2022-08-19T14:51:15;1.60;;;1.50;;
11171;SDS011;5642;50.830;12.082;2022-08-19T15:54:52;1.40;;;1.30;;
11171;SDS011;5642;50.830;12.082;2022-08-19T15:57:18;1.30;;;1.30;;
11171;SDS011;5642;50.830;12.082;2022-08-19T15:59:47;1.42;;;1.33;;
11171;SDS011;5642;50.830;12.082;2022-08-19T16:02:33;1.65;;;1.55;;
11171;SDS011;5642;50.830;12.082;2022-08-19T16:05:19;1.40;;;1.30;;
11171;SDS011;5642;50.830;12.082;2022-08-19T16:08:06;1.42;;;1.42;;
11171;SDS011;5642;50.830;12.082;2022-08-19T16:10:34;1.60;;;1.50;;
11171;SDS011;5642;50.830;12.082;2022-08-19T16:13:03;1.50;;;1.40;;
11171;SDS011;5642;50.830;12.082;2022-08-19T16:15:32;1.42;;;1.42;;
11171;SDS011;5642;50.830;12.082;2022-08-19T16:18:00;1.67;;;1.58;;
11171;SDS011;5642;50.830;12.082;2022-08-19T16:20:30;1.27;;;1.27;;
11171;SDS011;5642;50.830;12.082;2022-08-19T16:22:56;1.63;;;1.52;;
11171;SDS011;5642;50.830;12.082;2022-08-19T16:25:23;1.40;;;1.30;;
11171;SDS011;5642;50.830;12.082;2022-08-19T16:27:53;1.50;;;1.40;;
11171;SDS011;5642;50.830;12.082;2022-08-19T16:30:20;1.35;;;1.35;;
11171;SDS011;5642;50.830;12.082;2022-08-19T16:32:46;1.27;;;1.27;;
11171;SDS011;5642;50.830;12.082;2022-08-19T16:35:12;1.38;;;1.27;;
11171;SDS011;5642;50.830;12.082;2022-08-19T16:37:39;1.30;;;1.30;;
11171;SDS011;5642;50.830;12.082;2022-08-19T16:40:07;1.70;;;1.60;;
11171;SDS011;5642;50.830;12.082;2022-08-19T16:42:34;1.70;;;1.27;;
11171;SDS011;5642;50.830;12.082;2022-08-19T16:45:00;1.50;;;1.40;;
11171;SDS011;5642;50.830;12.082;2022-08-19T16:47:29;1.20;;;1.20;;
11171;SDS011;5642;50.830;12.082;2022-08-19T16:49:55;1.67;;;1.58;;
11171;SDS011;5642;50.830;12.082;2022-08-19T16:52:21;1.40;;;1.30;;
11171;SDS011;5642;50.830;12.082;2022-08-19T16:54:54;1.60;;;1.50;;
11171;SDS011;5642;50.830;12.082;2022-08-19T16:57:20;1.40;;;1.40;;
11171;SDS011;5642;50.830;12.082;2022-08-19T16:59:48;1.90;;;1.50;;
11171;SDS011;5642;50.830;12.082;2022-08-19T17:02:16;1.80;;;1.50;;
11171;SDS011;5642;50.830;12.082;2022-08-19T17:04:44;1.60;;;1.50;;
11171;SDS011;5642;50.830;12.082;2022-08-19T17:07:10;1.63;;;1.52;;
11171;SDS011;5642;50.830;12.082;2022-08-19T17:09:36;1.77;;;1.50;;
11171;SDS011;5642;50.830;12.082;2022-08-19T17:12:03;1.67;;;1.58;;
11171;SDS011;5642;50.830;12.082;2022-08-19T17:14:29;1.60;;;1.50;;
11171;SDS011;5642;50.830;12.082;2022-08-19T17:16:55;1.27;;;1.23;;
11171;SDS011;5642;50.830;12.082;2022-08-19T17:19:21;1.52;;;1.42;;
11171;SDS011;5642;50.830;12.082;2022-08-19T17:21:49;1.30;;;1.30;;
11171;SDS011;5642;50.830;12.082;2022-08-19T17:24:15;1.50;;;1.40;;
11171;SDS011;5642;50.830;12.082;2022-08-19T17:26:41;1.23;;;1.23;;
11171;SDS011;5642;50.830;12.082;2022-08-19T17:29:08;1.60;;;1.50;;
11171;SDS011;5642;50.830;12.082;2022-08-19T17:31:34;1.40;;;1.40;;
11171;SDS011;5642;50.830;12.082;2022-08-19T17:34:01;1.55;;;1.45;;
11171;SDS011;5642;50.830;12.082;2022-08-19T17:36:28;1.73;;;1.63;;
11171;SDS011;5642;50.830;12.082;2022-08-19T17:38:56;1.50;;;1.40;;
11171;SDS011;5642;50.830;12.082;2022-08-19T17:41:26;1.50;;;1.40;;
11171;SDS011;5642;50.830;12.082;2022-08-19T17:43:53;1.60;;;1.50;;
11171;SDS011;5642;50.830;12.082;2022-08-19T17:46:20;1.70;;;1.60;;
11171;SDS011;5642;50.830;12.082;2022-08-19T17:48:47;1.80;;;1.70;;
11171;SDS011;5642;50.830;12.082;2022-08-19T17:51:17;1.35;;;1.30;;
11171;SDS011;5642;50.830;12.082;2022-08-19T17:53:50;1.63;;;1.52;;
11171;SDS011;5642;50.830;12.082;2022-08-19T17:56:18;2.00;;;1.90;;
11171;SDS011;5642;50.830;12.082;2022-08-19T17:58:44;1.60;;;1.50;;
11171;SDS011;5642;50.830;12.082;2022-08-19T18:01:15;1.70;;;1.60;;
11171;SDS011;5642;50.830;12.082;2022-08-19T18:03:42;1.58;;;1.48;;
11171;SDS011;5642;50.830;12.082;2022-08-19T18:06:08;1.58;;;1.48;;
11171;SDS011;5642;50.830;12.082;2022-08-19T18:08:42;1.60;;;1.50;;
11171;SDS011;5642;50.830;12.082;2022-08-19T18:11:11;1.67;;;1.58;;
11171;SDS011;5642;50.830;12.082;2022-08-19T18:13:41;1.30;;;1.30;;
11171;SDS011;5642;50.830;12.082;2022-08-19T18:16:09;1.30;;;1.30;;
11171;SDS011;5642;50.830;12.082;2022-08-19T18:18:39;2.22;;;1.50;;
11171;SDS011;5642;50.830;12.082;2022-08-19T18:21:06;1.73;;;1.63;;
11171;SDS011;5642;50.830;12.082;2022-08-19T18:23:34;1.60;;;1.50;;
11171;SDS011;5642;50.830;12.082;2022-08-19T18:26:01;1.45;;;1.38;;
11171;SDS011;5642;50.830;12.082;2022-08-19T18:28:29;1.75;;;1.45;;
11171;SDS011;5642;50.830;12.082;2022-08-19T18:30:55;1.60;;;1.50;;
11171;SDS011;5642;50.830;12.082;2022-08-19T18:33:21;1.52;;;1.48;;
11171;SDS011;5642;50.830;12.082;2022-08-19T18:35:48;1.65;;;1.50;;
11171;SDS011;5642;50.830;12.082;2022-08-19T18:38:19;1.67;;;1.58;;
11171;SDS011;5642;50.830;12.082;2022-08-19T18:41:05;1.73;;;1.63;;
11171;SDS011;5642;50.830;12.082;2022-08-19T18:43:50;1.70;;;1.60;;
11171;SDS011;5642;50.830;12.082;2022-08-19T18:46:35;1.42;;;1.30;;
11171;SDS011;5642;50.830;12.082;2022-08-19T18:49:21;1.67;;;1.58;;
11171;SDS011;5642;50.830;12.082;2022-08-19T18:51:49;1.70;;;1.60;;
11171;SDS011;5642;50.830;12.082;2022-08-19T20:54:20;1.90;;;1.80;;
11171;SDS011;5642;50.830;12.082;2022-08-19T20:56:46;2.08;;;1.98;;
11171;SDS011;5642;50.830;12.082;2022-08-19T20:59:12;2.20;;;2.00;;
11171;SDS011;5642;50.830;12.082;2022-08-19T21:01:38;2.10;;;2.00;;
11171;SDS011;5642;50.830;12.082;2022-08-19T21:04:04;1.95;;;1.80;;
11171;SDS011;5642;50.830;12.082;2022-08-19T21:06:30;2.17;;;2.08;;
11171;SDS011;5642;50.830;12.082;2022-08-19T21:08:56;1.75;;;1.65;;
11171;SDS011;5642;50.830;12.082;2022-08-19T21:11:22;1.90;;;1.80;;
11171;SDS011;5642;50.830;12.082;2022-08-19T21:13:48;1.90;;;1.80;;
11171;SDS011;5642;50.830;12.082;2022-08-19T21:16:15;3.17;;;1.80;;
11171;SDS011;5642;50.830;12.082;2022-08-19T21:18:41;1.88;;;1.77;;
11171;SDS011;5642;50.830;12.082;2022-08-19T21:21:07;2.30;;;2.10;;
11171;SDS011;5642;50.830;12.082;2022-08-19T21:23:33;1.90;;;1.80;;
11171;SDS011;5642;50.830;12.082;2022-08-19T21:26:00;2.10;;;1.90;;
11171;SDS011;5642;50.830;12.082;2022-08-19T21:28:27;1.90;;;1.80;;
11171;SDS011;5642;50.830;12.082;2022-08-19T21:30:57;1.80;;;1.70;;
11171;SDS011;5642;50.830;12.082;2022-08-19T21:33:23;2.10;;;2.00;;
11171;SDS011;5642;50.830;12.082;2022-08-19T21:35:50;2.20;;;2.10;;
11171;SDS011;5642;50.830;12.082;2022-08-19T21:38:17;2.22;;;2.13;;
11171;SDS011;5642;50.830;12.082;2022-08-19T21:40:44;1.95;;;1.85;;
11171;SDS011;5642;50.830;12.082;2022-08-19T21:43:10;2.00;;;1.88;;
11171;SDS011;5642;50.830;12.082;2022-08-19T21:45:36;1.95;;;1.85;;
11171;SDS011;5642;50.830;12.082;2022-08-19T21:48:02;2.10;;;2.00;;
11171;SDS011;5642;50.830;12.082;2022-08-19T21:50:29;2.00;;;1.90;;
11171;SDS011;5642;50.830;12.082;2022-08-19T21:52:58;1.92;;;1.83;;
11171;SDS011;5642;50.830;12.082;2022-08-19T21:55:26;2.20;;;2.10;;
11171;SDS011;5642;50.830;12.082;2022-08-19T21:57:55;2.00;;;1.90;;
11171;SDS011;5642;50.830;12.082;2022-08-19T22:00:25;1.92;;;1.83;;
11171;SDS011;5642;50.830;12.082;2022-08-19T22:02:53;3.58;;;2.35;;
11171;SDS011;5642;50.830;12.082;2022-08-19T22:05:21;1.75;;;1.65;;
11171;SDS011;5642;50.830;12.082;2022-08-19T22:07:51;2.13;;;2.03;;
11171;SDS011;5642;50.830;12.082;2022-08-19T22:10:19;2.10;;;2.00;;
11171;SDS011;5642;50.830;12.082;2022-08-19T22:12:48;2.00;;;1.90;;
11171;SDS011;5642;50.830;12.082;2022-08-19T22:15:16;1.80;;;1.70;;
11171;SDS011;5642;50.830;12.082;2022-08-19T22:17:45;1.88;;;1.77;;
11171;SDS011;5642;50.830;12.082;2022-08-19T22:20:13;2.00;;;1.90;;
11171;SDS011;5642;50.830;12.082;2022-08-19T22:22:51;1.92;;;1.83;;
11171;SDS011;5642;50.830;12.082;2022-08-19T22:25:27;2.10;;;2.00;;
11171;SDS011;5642;50.830;12.082;2022-08-19T22:27:56;2.10;;;2.00;;
11171;SDS011;5642;50.830;12.082;2022-08-19T22:30:23;2.55;;;2.00;;
11171;SDS011;5642;50.830;12.082;2022-08-19T22:32:53;2.15;;;2.05;;
11171;SDS011;5642;50.830;12.082;2022-08-19T22:35:24;2.20;;;2.10;;
11171;SDS011;5642;50.830;12.082;2022-08-19T22:37:52;3.58;;;2.00;;
11171;SDS011;5642;50.830;12.082;2022-08-19T22:40:19;3.53;;;2.03;;
11171;SDS011;5642;50.830;12.082;2022-08-19T22:42:45;2.22;;;2.13;;
11171;SDS011;5642;50.830;12.082;2022-08-19T22:45:15;2.50;;;2.30;;
11171;SDS011;5642;50.830;12.082;2022-08-19T22:47:42;2.15;;;2.05;;
11171;SDS011;5642;50.830;12.082;2022-08-19T22:50:08;1.90;;;1.80;;
11171;SDS011;5642;50.830;12.082;2022-08-19T22:52:34;2.25;;;2.15;;
11171;SDS011;5642;50.830;12.082;2022-08-19T23:56:27;2.75;;;2.38;;
11171;SDS011;5642;50.830;12.082;2022-08-19T23:58:53;2.70;;;2.50;;
